Terminal Aerodrome Forecast
Issued by NWS

Home | Current Version | Previous Version | Text Only | Print | Product List | Glossary On
Versions: 1 2 3 4 5 6 7 8 9 10 11 12 13 14 15 16
352
FTUS41 KCAR 231720
TAFPQI
TAF
KPQI 231720Z 2318/2418 12008KT P6SM BKN210
     FM240100 18012KT P6SM OVC015
     FM240300 19011KT 1SM -SN OVC011
     FM240600 21011KT P6SM OVC013
     FM241200 30010KT P6SM BKN035
     FM241300 30011KT P6SM SCT045=

USA.gov is the U.S. government's official web portal to all federal, state and local government web resources and services.